x

South Santa Rosa Is. Ca (46069) Wave Buoy

4:50pm - Mon 23rd Oct 2017 All times are PDT. -7 hours from GMT.

  • Sig Wave height 7.9ft
  • Swell Direction
  • Peak Period 12s
  • Average Period 10s
  • Wind
    9mph, 11mph gusts
  • Sea Temp 64°f
  • Air Temp 67°f
  • Sea Pressure 1016.3mb
  • South Santa Rosa Is. Ca
  • South Santa Rosa Is. Ca

More Historic Weather Station data

Upgrade to MSW Pro to gain access to the past 30 days of data for over 8000 Wavebouys and Weather Stations around the globe.

Join

Comparision Forecast

View Surf forecast
   
Mon 10/23 4:50pm 8ft 12s 10s 9 11 mph 1016.3mb 64f 67f
3:50pm 8ft 12s 9s 7 9 mph 1016.5mb 63f 67f
2:50pm 7.5ft 12s 9s 7 9 mph 1016.7mb 63f 68f
1:50pm 8ft 12s 9s 7 9 mph 1017.1mb 64f 67f
12:50pm 8.5ft 13s 9s 7 9 mph 1017.8mb 63f 68f
11:50am 9ft 13s 10s 4 7 mph 1018.4mb 62f 68f
10:50am 8ft 13s 9s 7 7 mph 1018.5mb 61f 66f
9:50am 8.5ft 13s 9s 4 7 mph 1018.5mb 61f 65f
8:50am 9ft 12s 9s 7 9 mph 1018.1mb 61f 65f
7:50am 8ft 17s 9s 4 7 mph 1017.7mb 61f 65f
6:50am 9ft 12s 10s 7 9 mph 1017.3mb 61f 64f
5:50am 8ft 13s 9s 7 9 mph 1017.1mb 61f 63f
4:50am 8.5ft 17s 10s 4 7 mph 1016.9mb 61f 64f
3:50am 9ft 13s 9s 9 9 mph 1017mb 61f 65f
2:50am 8.5ft 13s 9s 7 9 mph 1017.5mb 61f 62f
1:50am 9ft 13s 9s 7 9 mph 1017.6mb 60f 62f
12:50am 9ft 13s 8s 7 9 mph 1017.8mb 61f 62f
Sun 10/22 11:50pm 9ft 13s 8s 9 11 mph 1017.9mb 61f 61f
10:50pm 9.5ft 13s 9s 9 13 mph 1018.2mb 61f 61f
9:50pm 10ft 13s 9s 11 13 mph 1018.2mb 61f 61f
8:50pm 8.5ft 14s 9s 13 16 mph 1018mb 61f 61f
7:50pm 8ft 17s 9s 16 18 mph 1018.1mb 61f 61f
6:50pm 8ft 13s 8s 18 20 mph 1017.9mb 61f 62f
5:50pm 8ft 13s 9s 16 18 mph 1018.3mb 61f 62f
4:50pm 8ft 14s 8s 13 16 mph 1018.5mb 60f 62f
3:50pm 8ft 12s 8s 16 18 mph 1018.5mb 60f 62f
2:50pm 9ft 14s 9s 18 20 mph 1018.6mb 60f 62f
1:50pm 8.5ft 13s 8s 18 22 mph 1019.1mb 60f 62f
12:50pm 9ft 13s 8s 18 20 mph 1019.7mb 60f 61f
11:50am 9ft 13s 8s 13 18 mph 1020.2mb 60f 61f
10:50am 9ft 13s 8s 11 16 mph 1020.3mb 60f 61f
9:50am 9ft 14s 9s 13 16 mph 1020.2mb 60f 61f
8:50am 9.5ft 13s 8s 16 18 mph 1020mb 60f 61f
7:50am 9.5ft 14s 8s 16 20 mph 1019.4mb 60f 61f
6:50am 10ft 13s 9s 18 22 mph 1019.1mb 60f 61f
5:50am 9ft 14s 9s 18 22 mph 1018.8mb 60f 61f
4:50am 10ft 14s 9s 18 20 mph 1018.7mb 60f 61f
3:50am 11ft 15s 9s 18 22 mph 1018.6mb 60f 61f
2:50am 11ft 15s 9s 13 16 mph 1018.9mb 60f 61f
1:50am 10.5ft 15s 8s 13 18 mph 1019.2mb 60f 61f
12:50am 11ft 15s 8s 18 22 mph 1019.1mb 60f 61f
Sat 10/21 11:50pm 12.5ft 14s 9s 20 22 mph 1019.2mb 60f 60f
10:50pm 12ft 15s 8s 20 27 mph 1019.2mb 60f 60f
9:50pm 12ft 15s 8s 22 29 mph 1019.3mb 60f 60f
8:50pm 11ft 15s 8s 22 25 mph 1019.4mb 60f 60f
7:50pm 13ft 15s 9s 22 29 mph 1019.3mb 60f 60f
6:50pm 12ft 15s 9s 20 25 mph 1019.1mb 60f 60f
5:50pm 12.5ft 16s 9s 22 29 mph 1018.1mb 60f 60f
4:50pm 12ft 16s 9s 25 29 mph 1017.9mb 60f 61f
3:50pm 12ft 14s 8s 22 29 mph 1017.9mb 60f 60f
2:50pm 11ft 16s 8s 22 29 mph 1017.9mb 60f 60f
1:50pm 13ft 16s 9s 25 31 mph 1017.8mb 60f 59f
12:50pm 14ft 16s 9s 25 29 mph 1018.7mb 60f 59f
11:50am 13.5ft 16s 8s 25 31 mph 1018.6mb 60f 59f
10:50am 15ft 16s 9s 29 36 mph 1018.3mb 60f 59f
9:50am 15ft 16s 9s 29 36 mph 1018.1mb 60f 59f
8:50am 15.5ft 16s 9s 25 31 mph 1018.3mb 60f 59f
7:50am 16.5ft 16s 9s 29 38 mph 1016.6mb 60f 59f
6:50am 16ft 16s 9s 29 38 mph 1016.4mb 60f 59f
5:50am 17.5ft 16s 10s 31 38 mph 1015.8mb 59f 59f
4:50am 15.5ft 16s 9s 34 43 mph 1015.7mb 59f 59f
3:50am 14.5ft 16s 9s 31 38 mph 1015.8mb 59f 59f
2:50am 15.5ft 16s 9s 29 38 mph 1016.2mb 59f 59f
1:50am 14.5ft 17s 9s 31 38 mph 1016.8mb 59f 59f
12:50am 14ft 17s 8s 31 38 mph 1016.6mb 59f 59f
Fri 10/20 11:50pm 15ft 17s 8s 31 38 mph 1016.2mb 59f 59f
10:50pm 16.5ft 17s 8s 36 43 mph 1016mb 60f 59f
9:50pm 15.5ft 17s 8s 34 43 mph 1015.8mb 60f 60f
8:50pm 16ft 16s 9s 36 43 mph 1015.8mb 60f 60f
7:50pm 14.5ft 17s 8s 34 45 mph 1015.5mb 60f 60f
6:50pm 14.5ft 17s 8s 34 43 mph 1014.9mb 61f 60f
5:50pm 15ft 16s 9s 36 43 mph 1014.2mb 61f 61f
4:50pm 14ft 17s 8s 31 40 mph 1014.6mb 61f 61f
3:50pm 12.5ft 19s 8s 34 40 mph 1014.7mb 61f 61f
2:50pm 12ft 17s 8s 31 38 mph 1014.3mb 61f 61f
1:50pm 12ft 17s 8s 29 36 mph 1015.1mb 61f 61f
12:50pm 11.5ft 17s 8s 27 34 mph 1015.5mb 61f 60f
11:50am 11ft 17s 9s 27 34 mph 1015.6mb 61f 60f
10:50am 8.5ft 19s 8s 29 36 mph 1015.8mb 61f 60f
9:50am 7.5ft 19s 8s 25 31 mph 1015.8mb 61f 61f
8:50am 6ft 19s 8s 18 22 mph 1015.7mb 61f 61f
7:50am 6ft 21s 7s 13 16 mph 1015.3mb 61f 61f
6:50am 5ft 14s 6s 18 22 mph 1015.1mb 61f 62f
5:50am 4.5ft 15s 7s 16 20 mph 1015mb 61f 62f
4:50am 4.5ft 15s 7s 16 20 mph 1014.7mb 61f 61f
3:50am 4.5ft 15s 6s 11 16 mph 1014.3mb 61f 61f
2:50am 5ft 15s 7s 13 16 mph 1014.5mb 61f 61f